createdAt,value
2022-11-16T00:01:01.803Z,84.83
2022-11-16T00:04:04.604Z,84.98
2022-11-16T00:07:07.411Z,84.79
2022-11-16T00:10:11.366Z,85.51
2022-11-16T00:13:15.321Z,85.09
2022-11-16T00:16:19.324Z,85.20
2022-11-16T00:19:22.025Z,84.53
2022-11-16T00:22:24.627Z,85.38
2022-11-16T00:25:27.193Z,84.25
2022-11-16T00:28:31.500Z,82.73
2022-11-16T00:31:34.381Z,80.41
2022-11-16T00:34:36.994Z,80.65
2022-11-16T00:37:39.554Z,81.48
2022-11-16T00:40:42.161Z,80.41
2022-11-16T00:43:46.193Z,80.74
2022-11-16T00:46:48.756Z,81.90
2022-11-16T00:49:51.336Z,81.74
2022-11-16T00:52:54.248Z,81.50
2022-11-16T00:55:56.913Z,81.31
2022-11-16T00:59:00.944Z,81.45
2022-11-16T01:02:03.597Z,81.51
2022-11-16T01:05:07.281Z,82.38
2022-11-16T01:08:09.802Z,83.43
2022-11-16T01:11:31.937Z,83.62
2022-11-16T01:14:36.287Z,84.29
2022-11-16T01:17:39.810Z,85.21
2022-11-16T01:20:42.451Z,84.45
2022-11-16T01:23:45.008Z,84.51
2022-11-16T01:26:47.700Z,84.26
2022-11-16T01:29:51.704Z,83.33
2022-11-16T01:32:54.364Z,82.31
2022-11-16T01:35:57.104Z,81.86
2022-11-16T01:39:00.277Z,82.05
2022-11-16T01:42:02.929Z,81.95
2022-11-16T01:45:18.243Z,81.48
2022-11-16T01:48:23.797Z,81.39
2022-11-16T01:51:26.854Z,81.54
2022-11-16T01:54:30.561Z,82.18
2022-11-16T01:57:36.218Z,81.34
2022-11-16T02:00:40.153Z,80.76
2022-11-16T02:03:43.237Z,80.31
2022-11-16T02:06:58.595Z,80.13
2022-11-16T02:10:10.851Z,80.64
2022-11-16T02:13:26.967Z,81.68
2022-11-16T02:16:39.667Z,81.08
2022-11-16T02:20:02.479Z,80.66
2022-11-16T02:23:23.854Z,81.48
2022-11-16T02:26:38.658Z,81.23
2022-11-16T02:29:43.905Z,82.09
2022-11-16T02:32:49.445Z,82.75
2022-11-16T02:35:53.674Z,83.44
2022-11-16T02:38:59.285Z,84.06
2022-11-16T02:42:03.440Z,84.47
2022-11-16T02:45:11.004Z,84.96
2022-11-16T02:48:17.885Z,85.03
2022-11-16T02:51:20.865Z,86.39
2022-11-16T02:54:25.062Z,86.26
2022-11-16T02:57:38.955Z,85.56
2022-11-16T03:00:43.692Z,86.10
2022-11-16T03:03:50.565Z,86.23
2022-11-16T03:06:55.044Z,86.43
2022-11-16T03:09:57.993Z,85.77
2022-11-16T03:13:01.555Z,86.36
2022-11-16T03:16:06.688Z,86.11
2022-11-16T03:19:12.292Z,86.43
2022-11-16T03:22:17.395Z,86.42
2022-11-16T03:25:21.599Z,85.86
2022-11-16T03:28:27.426Z,85.27
2022-11-16T03:31:36.694Z,85.74
2022-11-16T03:34:40.213Z,86.44
2022-11-16T03:37:42.986Z,86.72
2022-11-16T03:40:46.673Z,87.14
2022-11-16T03:43:49.395Z,87.33
2022-11-16T03:46:53.321Z,88.11
2022-11-16T03:49:55.892Z,88.24
2022-11-16T03:52:58.450Z,88.46
2022-11-16T03:56:01.143Z,87.56
2022-11-16T03:59:03.820Z,88.19
2022-11-16T04:02:07.740Z,88.33
2022-11-16T04:05:28.306Z,87.74
2022-11-16T04:08:48.713Z,87.73
2022-11-16T04:12:09.148Z,88.03
2022-11-16T04:15:29.574Z,87.90
2022-11-16T04:18:51.180Z,87.55
2022-11-16T04:22:13.017Z,87.46
2022-11-16T04:25:17.821Z,86.71
2022-11-16T04:28:22.038Z,87.07
2022-11-16T04:31:50.543Z,87.51
2022-11-16T04:35:12.196Z,87.36
2022-11-16T04:38:14.860Z,87.74
2022-11-16T04:41:31.388Z,87.49
2022-11-16T04:44:49.859Z,87.66
2022-11-16T04:47:53.048Z,87.74
2022-11-16T04:50:57.018Z,87.91
2022-11-16T04:53:59.713Z,88.00
2022-11-16T04:57:02.534Z,87.72
2022-11-16T05:00:06.204Z,88.08
2022-11-16T05:03:08.798Z,88.07
2022-11-16T05:06:12.837Z,87.44
2022-11-16T05:09:15.764Z,87.40
2022-11-16T05:12:22.299Z,87.34
2022-11-16T05:15:25.008Z,87.74
2022-11-16T05:18:27.621Z,87.85
2022-11-16T05:21:30.585Z,89.16
2022-11-16T05:24:36.092Z,88.25
2022-11-16T05:27:39.302Z,88.64
2022-11-16T05:30:41.865Z,88.83
2022-11-16T05:33:44.527Z,88.40
2022-11-16T05:36:48.512Z,88.34
2022-11-16T05:39:51.130Z,88.98
2022-11-16T05:42:53.700Z,89.26
2022-11-16T05:45:56.361Z,89.02
2022-11-16T05:48:58.920Z,90.00
2022-11-16T05:52:02.871Z,89.66
2022-11-16T05:55:06.550Z,89.71
2022-11-16T05:58:09.160Z,89.68
2022-11-16T06:01:11.727Z,89.61
2022-11-16T06:04:14.963Z,88.93
2022-11-16T06:07:19.103Z,89.33
2022-11-16T06:10:21.966Z,89.52
2022-11-16T06:13:24.489Z,89.75
2022-11-16T06:16:27.139Z,88.85
2022-11-16T06:19:32.456Z,88.66
2022-11-16T06:22:36.646Z,89.06
2022-11-16T06:25:40.287Z,88.40
2022-11-16T06:28:42.703Z,87.92
2022-11-16T06:31:45.274Z,87.42
2022-11-16T06:34:47.839Z,88.02
2022-11-16T06:37:51.772Z,87.17
2022-11-16T06:40:55.990Z,86.70
2022-11-16T06:43:58.659Z,86.72
2022-11-16T06:47:02.591Z,86.99
2022-11-16T06:50:05.707Z,86.85
2022-11-16T06:53:09.730Z,86.02
2022-11-16T06:56:14.627Z,86.07
2022-11-16T06:59:18.614Z,86.09
2022-11-16T07:02:22.861Z,86.48
2022-11-16T07:05:25.454Z,85.83
2022-11-16T07:08:30.359Z,86.23
2022-11-16T07:11:33.150Z,85.85
2022-11-16T07:14:35.913Z,85.70
2022-11-16T07:17:38.787Z,85.64
2022-11-16T07:20:41.436Z,85.75
2022-11-16T07:23:45.560Z,85.79
2022-11-16T07:26:48.192Z,86.41
2022-11-16T07:29:50.809Z,85.74
2022-11-16T07:32:58.398Z,85.49
2022-11-16T07:36:04.411Z,84.71
2022-11-16T07:39:10.219Z,85.03
2022-11-16T07:42:12.907Z,83.64
2022-11-16T07:45:15.617Z,81.15
2022-11-16T07:48:18.220Z,79.29
2022-11-16T07:51:21.549Z,78.89
2022-11-16T07:54:25.592Z,78.92
2022-11-16T07:57:28.367Z,78.74
2022-11-16T08:00:30.929Z,77.51
2022-11-16T08:03:33.793Z,77.03
2022-11-16T08:06:36.312Z,78.29
2022-11-16T08:09:40.895Z,78.39
2022-11-16T08:12:43.586Z,77.33
2022-11-16T08:15:46.213Z,76.30
2022-11-16T08:18:49.197Z,75.63
2022-11-16T08:21:51.856Z,74.62
2022-11-16T08:24:55.885Z,73.71
2022-11-16T08:27:58.513Z,72.38
2022-11-16T08:31:01.167Z,71.65
2022-11-16T08:34:04.026Z,71.05
2022-11-16T08:37:06.668Z,70.51
2022-11-16T08:40:12.324Z,69.70
2022-11-16T08:43:14.966Z,70.20
2022-11-16T08:46:17.627Z,69.95
2022-11-16T08:49:20.299Z,70.84
2022-11-16T08:52:22.955Z,70.68
2022-11-16T08:55:27.277Z,70.89
2022-11-16T08:58:29.995Z,71.23
2022-11-16T09:01:33.404Z,71.86
2022-11-16T09:04:37.355Z,71.36
2022-11-16T09:07:40.667Z,72.27
2022-11-16T09:10:44.708Z,71.30
2022-11-16T09:13:48.946Z,70.96
2022-11-16T09:16:52.237Z,70.40
2022-11-16T09:19:54.862Z,69.79
2022-11-16T09:22:57.550Z,69.92
2022-11-16T09:26:03.808Z,69.49
2022-11-16T09:29:06.486Z,68.90
2022-11-16T09:32:09.278Z,68.76
2022-11-16T09:35:11.984Z,69.02
2022-11-16T09:38:21.981Z,70.21
2022-11-16T09:41:43.556Z,70.66
2022-11-16T09:44:59.010Z,69.22
2022-11-16T09:48:04.695Z,68.72
2022-11-16T09:51:08.993Z,67.27
2022-11-16T09:54:16.044Z,66.00
2022-11-16T09:57:23.536Z,64.43
2022-11-16T10:00:26.203Z,63.74
2022-11-16T10:03:30.341Z,61.86
2022-11-16T10:06:41.091Z,61.74
2022-11-16T10:09:44.325Z,60.52
2022-11-16T10:12:51.049Z,60.27
2022-11-16T10:16:01.011Z,58.29
2022-11-16T10:19:08.496Z,56.87
2022-11-16T10:22:22.664Z,56.78
2022-11-16T10:25:27.756Z,57.07
2022-11-16T10:28:47.843Z,57.76
2022-11-16T10:31:58.201Z,57.54
2022-11-16T10:35:03.348Z,58.83
2022-11-16T10:38:12.589Z,57.68
2022-11-16T10:41:20.096Z,57.38
2022-11-16T10:44:30.428Z,57.91
2022-11-16T10:47:38.517Z,59.20
2022-11-16T10:50:45.317Z,59.18
2022-11-16T10:53:48.192Z,60.00
2022-11-16T10:56:55.282Z,58.23
2022-11-16T10:59:59.574Z,58.16
2022-11-16T11:03:02.141Z,56.14
2022-11-16T11:06:05.010Z,54.51
2022-11-16T11:09:17.065Z,52.35
2022-11-16T11:12:39.138Z,52.23
2022-11-16T11:15:44.650Z,50.52
2022-11-16T11:18:47.310Z,48.85
2022-11-16T11:21:50.240Z,50.21
2022-11-16T11:24:53.170Z,51.11
2022-11-16T11:28:06.119Z,52.89
2022-11-16T11:31:13.679Z,53.89
2022-11-16T11:34:19.047Z,54.92
2022-11-16T11:37:23.476Z,56.33
2022-11-16T11:40:27.327Z,55.97
2022-11-16T11:43:30.263Z,56.86
2022-11-16T11:47:18.281Z,55.71
2022-11-16T11:50:05.397Z,55.20
2022-11-16T11:53:11.766Z,54.03
2022-11-16T11:56:15.305Z,53.53
2022-11-16T11:59:20.988Z,52.86
2022-11-16T12:02:39.771Z,50.85
2022-11-16T12:05:51.464Z,51.10
2022-11-16T12:09:03.267Z,51.12
2022-11-16T12:12:18.421Z,49.71
2022-11-16T12:15:44.487Z,48.69
2022-11-16T12:18:58.820Z,48.06
2022-11-16T12:22:09.839Z,46.65
2022-11-16T12:25:21.494Z,45.84
2022-11-16T12:28:41.420Z,45.49
2022-11-16T12:32:03.706Z,43.88
2022-11-16T12:35:22.642Z,43.53
2022-11-16T12:38:44.344Z,44.16
2022-11-16T12:42:02.192Z,44.22
2022-11-16T12:45:17.548Z,43.18
2022-11-16T12:48:30.882Z,43.30
2022-11-16T12:51:45.329Z,32.00
2022-11-16T12:55:27.153Z,26.10
2022-11-16T12:58:42.912Z,21.56
2022-11-16T13:01:55.033Z,20.91
2022-11-16T13:05:04.486Z,20.85
2022-11-16T13:08:13.225Z,21.16
2022-11-16T13:11:20.713Z,20.25
2022-11-16T13:14:27.266Z,16.78
2022-11-16T13:17:33.419Z,18.56
2022-11-16T13:20:41.119Z,16.48
2022-11-16T13:23:53.335Z,15.31
2022-11-16T13:26:59.855Z,17.52
2022-11-16T13:30:06.810Z,17.30
2022-11-16T13:33:21.730Z,20.88
2022-11-16T13:36:47.688Z,22.04
2022-11-16T13:40:11.563Z,20.36
2022-11-16T13:43:20.787Z,24.34
2022-11-16T13:46:54.111Z,32.41
2022-11-16T13:49:50.069Z,37.92
2022-11-16T13:53:51.330Z,41.19
2022-11-16T13:56:24.167Z,41.65
2022-11-16T13:59:31.018Z,42.10
2022-11-16T14:02:35.143Z,42.43
2022-11-16T14:05:40.170Z,43.87
2022-11-16T14:08:51.019Z,43.73
2022-11-16T14:11:55.191Z,40.88
2022-11-16T14:15:12.528Z,30.66
2022-11-16T14:18:38.166Z,29.29
2022-11-16T14:21:48.973Z,35.25
2022-11-16T14:24:55.180Z,38.34
2022-11-16T14:28:07.985Z,40.44
2022-11-16T14:31:17.360Z,42.09
2022-11-16T14:34:22.229Z,43.24
2022-11-16T14:37:36.257Z,44.60
2022-11-16T14:40:44.732Z,45.38
2022-11-16T14:43:51.341Z,46.65
2022-11-16T14:46:54.237Z,47.97
2022-11-16T14:49:57.398Z,49.32
2022-11-16T14:53:03.985Z,51.40
2022-11-16T14:56:11.005Z,54.01
2022-11-16T14:59:18.626Z,55.78
2022-11-16T15:02:23.405Z,56.36
2022-11-16T15:05:29.590Z,56.72
2022-11-16T15:08:34.755Z,58.60
2022-11-16T15:11:57.350Z,59.57
2022-11-16T15:15:06.661Z,60.24
2022-11-16T15:18:14.894Z,62.55
2022-11-16T15:21:22.190Z,63.03
2022-11-16T15:24:32.899Z,63.80
2022-11-16T15:27:37.506Z,65.34
2022-11-16T15:30:41.846Z,65.65
2022-11-16T15:33:45.802Z,66.06
2022-11-16T15:36:49.104Z,66.96
2022-11-16T15:39:52.025Z,67.29
2022-11-16T15:42:54.908Z,68.66
2022-11-16T15:46:00.794Z,68.57
2022-11-16T15:49:03.558Z,69.36
2022-11-16T15:52:06.450Z,70.31
2022-11-16T15:55:21.993Z,70.51
2022-11-16T15:58:27.158Z,70.60
2022-11-16T16:01:31.429Z,70.55
2022-11-16T16:04:34.081Z,71.03
2022-11-16T16:07:37.614Z,71.46
2022-11-16T16:10:40.202Z,72.31
2022-11-16T16:13:44.629Z,71.74
2022-11-16T16:16:50.854Z,72.40
2022-11-16T16:19:57.534Z,72.79
2022-11-16T16:23:09.292Z,73.59
2022-11-16T16:26:11.925Z,74.00
2022-11-16T16:29:14.547Z,74.47
2022-11-16T16:32:24.831Z,75.10
2022-11-16T16:35:27.894Z,75.30
2022-11-16T16:38:30.550Z,76.14
2022-11-16T16:41:33.239Z,76.13
2022-11-16T16:44:35.835Z,76.67
2022-11-16T16:47:40.014Z,76.52
2022-11-16T16:50:42.655Z,76.21
2022-11-16T16:53:45.337Z,76.07
2022-11-16T16:56:48.233Z,76.61
2022-11-16T16:59:50.896Z,76.85
2022-11-16T17:02:55.208Z,76.40
2022-11-16T17:06:00.827Z,76.55
2022-11-16T17:09:03.567Z,77.21
2022-11-16T17:12:06.777Z,78.04
2022-11-16T17:15:13.847Z,78.15
2022-11-16T17:18:21.775Z,78.46
2022-11-16T17:21:24.476Z,78.27
2022-11-16T17:24:27.183Z,78.30
2022-11-16T17:27:29.807Z,78.30
2022-11-16T17:30:32.388Z,78.16
2022-11-16T17:33:37.451Z,78.33
2022-11-16T17:36:40.127Z,78.21
2022-11-16T17:39:42.723Z,77.99
2022-11-16T17:42:45.526Z,77.70
2022-11-16T17:45:48.124Z,76.68
2022-11-16T17:48:52.935Z,75.69
2022-11-16T17:51:55.605Z,74.95
2022-11-16T17:54:58.294Z,74.07
2022-11-16T17:58:00.939Z,74.55
2022-11-16T18:01:03.758Z,74.18
2022-11-16T18:04:07.941Z,73.76
2022-11-16T18:07:10.634Z,73.57
2022-11-16T18:10:18.903Z,72.72
2022-11-16T18:13:22.122Z,72.56
2022-11-16T18:16:26.839Z,72.38
2022-11-16T18:19:30.844Z,72.34
2022-11-16T18:22:33.527Z,72.00
2022-11-16T18:25:36.973Z,70.86
2022-11-16T18:28:39.929Z,71.79
2022-11-16T18:31:43.497Z,72.13
2022-11-16T18:34:47.563Z,72.30
2022-11-16T18:37:50.367Z,72.38
2022-11-16T18:41:04.176Z,72.63
2022-11-16T18:44:07.913Z,72.83
2022-11-16T18:47:10.505Z,73.69
2022-11-16T18:50:21.265Z,74.57
2022-11-16T18:53:27.081Z,75.44
2022-11-16T18:56:30.068Z,76.13
2022-11-16T18:59:32.901Z,77.00
2022-11-16T19:02:35.636Z,77.42
2022-11-16T19:05:39.874Z,78.28
2022-11-16T19:08:46.878Z,78.93
2022-11-16T19:11:53.010Z,79.44
2022-11-16T19:14:55.682Z,80.00
2022-11-16T19:18:19.779Z,80.96
2022-11-16T19:21:23.285Z,80.82
2022-11-16T19:24:25.999Z,81.00
2022-11-16T19:27:28.939Z,81.07
2022-11-16T19:30:32.081Z,81.87
2022-11-16T19:33:38.155Z,81.84
2022-11-16T19:36:42.343Z,82.84
2022-11-16T19:39:45.145Z,82.76
2022-11-16T19:42:47.821Z,82.81
2022-11-16T19:45:50.583Z,82.86
2022-11-16T19:48:53.786Z,81.85
2022-11-16T19:51:59.385Z,81.86
2022-11-16T19:55:02.016Z,81.58
2022-11-16T19:58:05.761Z,81.01
2022-11-16T20:01:08.890Z,80.64
2022-11-16T20:04:13.872Z,80.27
2022-11-16T20:07:18.211Z,79.64
2022-11-16T20:10:20.963Z,80.20
2022-11-16T20:13:23.747Z,80.40
2022-11-16T20:16:27.941Z,80.62
2022-11-16T20:19:30.550Z,80.86
2022-11-16T20:22:34.728Z,81.76
2022-11-16T20:25:41.602Z,81.32
2022-11-16T20:28:44.675Z,81.37
2022-11-16T20:31:47.645Z,81.82
2022-11-16T20:34:50.987Z,81.55
2022-11-16T20:37:54.946Z,81.22
2022-11-16T20:40:57.529Z,80.90
2022-11-16T20:44:01.309Z,80.29
2022-11-16T20:47:04.541Z,80.01
2022-11-16T20:50:07.517Z,80.10
2022-11-16T20:53:11.739Z,79.54
2022-11-16T20:56:15.678Z,80.29
2022-11-16T20:59:18.463Z,79.60
2022-11-16T21:02:21.115Z,79.76
2022-11-16T21:05:23.875Z,80.05
2022-11-16T21:08:29.591Z,80.78
2022-11-16T21:11:53.751Z,81.08
2022-11-16T21:14:55.219Z,81.61
2022-11-16T21:17:57.945Z,82.03
2022-11-16T21:21:04.156Z,82.13
2022-11-16T21:24:08.972Z,82.00
2022-11-16T21:27:11.607Z,82.19
2022-11-16T21:30:15.219Z,81.53
2022-11-16T21:33:17.848Z,81.55
2022-11-16T21:36:21.980Z,81.09
2022-11-16T21:39:26.059Z,80.78
2022-11-16T21:42:28.941Z,81.07
2022-11-16T21:45:31.571Z,81.33
2022-11-16T21:48:34.792Z,80.77
2022-11-16T21:51:37.424Z,80.44
2022-11-16T21:54:55.967Z,80.95
2022-11-16T21:57:59.011Z,80.77
2022-11-16T22:01:04.562Z,80.83
2022-11-16T22:04:25.102Z,80.55
2022-11-16T22:07:33.858Z,80.75
2022-11-16T22:10:38.132Z,80.67
2022-11-16T22:13:41.016Z,80.00
2022-11-16T22:16:43.673Z,80.23
2022-11-16T22:19:46.263Z,79.55
2022-11-16T22:22:49.176Z,79.59
2022-11-16T22:25:53.439Z,79.18
2022-11-16T22:28:56.687Z,78.73
2022-11-16T22:31:59.314Z,78.56
2022-11-16T22:35:01.917Z,78.04
2022-11-16T22:38:04.858Z,78.31
2022-11-16T22:41:08.663Z,77.54
2022-11-16T22:44:11.516Z,77.80
2022-11-16T22:47:14.169Z,77.57
2022-11-16T22:50:16.824Z,77.32
2022-11-16T22:53:19.454Z,77.40
2022-11-16T22:56:23.861Z,77.55
2022-11-16T22:59:26.463Z,77.21
2022-11-16T23:02:29.162Z,77.66
2022-11-16T23:05:31.826Z,77.16
2022-11-16T23:08:35.168Z,77.06
2022-11-16T23:11:56.668Z,76.94
2022-11-16T23:15:16.966Z,77.02
2022-11-16T23:18:20.591Z,76.81
2022-11-16T23:21:40.534Z,76.67
2022-11-16T23:25:01.098Z,76.84
2022-11-16T23:28:07.204Z,76.74
2022-11-16T23:31:09.866Z,76.33
2022-11-16T23:34:12.611Z,76.40
2022-11-16T23:37:15.242Z,76.68
2022-11-16T23:40:18.303Z,76.66
2022-11-16T23:43:36.452Z,76.69
2022-11-16T23:46:39.202Z,76.71
2022-11-16T23:49:41.895Z,76.81
2022-11-16T23:52:44.498Z,77.33
2022-11-16T23:55:47.618Z,77.10
2022-11-16T23:58:51.666Z,77.30
